Stunt Ranch Reserve, Santa Monica Mtns, California Weather observations

Data are for 10 minute period ending at time listed.
 Day   Time   Solar   Ave.   Ave.  Ave.  Vector  Max.   Baro.   Total    
  of    of     Rad.   Air    Rel.  Wind   Wind   Wind  Press.  Precip.   
Year   Day            Temp.  Hum.  Speed  Dir.   Gust                    
2014   (PST)  Kw/m2    F      %     mph   deg.    mph    mb.     in.     
-------------------------------------------------------------------------
 263   15:10   0.51   80.2    50    2.0   313     6.1   966.1    0.00 
 263   15:20   0.48   80.7    49    2.1   299     6.4   966.1    0.00 
 263   15:30   0.44   79.7    50    2.6   304     7.3   966.1    0.00 
 263   15:40   0.41   79.4    50    2.9   308     7.7   966.1    0.00 
 263   15:50   0.38   78.4    52    2.9   293     6.7   966.1    0.00 
 263   16:00   0.35   78.5    52    2.9   312     6.4   965.8    0.00 
 263   16:10   0.31   78.0    53    2.2   301     5.5   965.8    0.00 
 263   16:20   0.28   77.7    54    2.1   309     6.4   965.8    0.00 
 263   16:30   0.24   77.4    54    2.3   300     5.7   965.8    0.00 
 263   16:40   0.21   76.3    56    3.0   310     6.3   965.8    0.00 
 263   16:50   0.18   74.8    59    2.4   309     5.6   965.8    0.00 
 263   17:00   0.14   74.3    60    1.6   310     4.2   965.8    0.00 
 263   17:10   0.11   73.1    62    0.9   316     5.2   965.8    0.00 
 263   17:20   0.09   71.9    64    1.6   313     4.3   965.5    0.00 
 263   17:30   0.06   71.0    66    1.2   298     4.2   965.8    0.00 
 263   17:40   0.04   69.6    68    1.1   296     3.0   965.8    0.00 
 263   17:50   0.01   68.6    70    0.4   307     2.2   965.8    0.00 
 263   18:00   0.01   67.8    72    0.4   332     2.0   965.8    0.00 
 263   18:10   0.00   67.0    73    0.3   315     1.5   966.1    0.00 
 263   18:20   0.00   66.1    75    0.5   182     1.8   966.5    0.00 
 263   18:30   0.00   65.5    76    0.7   121     2.5   966.5    0.00 
 263   18:40   0.00   64.6    77    2.4   130     3.2   966.5    0.00 
 263   18:50   0.00   64.3    78    1.8   147     2.9   966.8    0.00 
 263   19:00   0.00   64.3    79    1.8   132     2.8   966.8    0.00 
 263   19:10   0.00   64.0    79    0.8   154     1.9   966.8    0.00 
 263   19:20   0.00   63.8    80    0.3   305     1.8   966.8    0.00 
 263   19:30   0.00   63.6    80    0.3   302     1.1   967.2    0.00 
 263   19:40   0.00   63.4    81    0.0     0     0.0   967.2    0.00 
 263   19:50   0.00   63.0    82    0.7   242     2.0   967.5    0.00 
 263   20:00   0.00   63.0    82    0.9   239     1.8   967.5    0.00 
 263   20:10   0.00   62.7    83    0.4   206     1.7   967.5    0.00 
 263   20:20   0.00   62.3    84    1.4   236     2.3   967.5    0.00 
 263   20:30   0.00   62.3    85    1.6   251     2.8   967.5    0.00 
 263   20:40   0.00   62.0    85    1.3   214     2.8   967.5    0.00 
 263   20:50   0.00   61.4    86    2.1   169     3.6   967.5    0.00 
 263   21:00   0.00   61.4    87    2.6   158     3.6   967.5    0.00 
 263   21:10   0.00   61.4    86    1.4   169     2.3   967.5    0.00 
 263   21:20   0.00   61.2    87    0.1   168     1.1   967.5    0.00 
 263   21:30   0.00   61.2    89    0.0     0     0.0   967.8    0.00 
 263   21:40   0.00   60.8    89    0.2   206     1.4   967.8    0.00 
 263   21:50   0.00   60.9    89    0.1   220     0.9   967.8    0.00 
 263   22:00   0.00   60.7    89    0.1   237     0.8   967.8    0.00 
 263   22:10   0.00   60.5    90    0.1   249     0.9   967.8    0.00 
 263   22:20   0.00   60.4    90    0.5   176     1.6   968.2    0.00 
 263   22:30   0.00   60.2    90    0.1   211     0.8   968.2    0.00 
 263   22:40   0.00   60.2    90    0.8   197     1.8   967.8    0.00 
 263   22:50   0.00   60.3    90    1.3   199     1.9   968.2    0.00 
 263   23:00   0.00   60.1    90    1.0   189     2.0   968.2    0.00 
 263   23:10   0.00   60.1    91    0.7   184     1.5   967.8    0.00 
 263   23:20   0.00   60.0    91    0.5   214     1.5   967.8    0.00 
 263   23:30   0.00   59.9    92    0.9   271     1.4   967.8    0.00 
 263   23:40   0.00   59.9    92    0.5   253     1.3   967.8    0.00 
 263   23:50   0.00   59.7    91    0.3   233     1.5   968.2    0.00 
 264    0:00   0.00   59.4    92    0.1   200     0.8   967.8    0.00 
 264    0:10   0.00   59.5    93    0.3   218     1.3   967.8    0.00 
 264    0:20   0.00   59.4    93    0.4   276     1.0   967.8    0.00 
 264    0:30   0.00   59.3    93    0.9   219     2.1   967.8    0.00 
 264    0:40   0.00   59.2    93    0.4   261     1.0   967.8    0.00 
 264    0:50   0.00   58.9    93    0.7   254     1.2   967.8    0.00 
 264    1:00   0.00   58.8    93    0.1   237     0.7   967.8    0.00 
 264    1:10   0.00   58.7    94    0.2   154     1.5   967.8    0.00 
 264    1:20   0.00   58.9    94    0.0   266     0.7   967.8    0.00 
 264    1:30   0.00   58.6    94    1.4   264     2.1   967.8    0.00 
 264    1:40   0.00   58.5    94    0.6   233     1.5   967.8    0.00 
 264    1:50   0.00   58.4    94    0.5   352     1.4   967.8    0.00 
 264    2:00   0.00   58.2    94    0.4   192     1.5   967.8    0.00 
 264    2:10   0.00   57.9    94    0.4   275     1.5   967.8    0.00 
 264    2:20   0.00   57.8    95    0.4   122     1.4   967.8    0.00 
 264    2:30   0.00   57.8    95    0.9   115     2.3   967.5    0.00 
 264    2:40   0.00   58.1    95    1.4   118     3.3   967.5    0.00 
 264    2:50   0.00   58.7    95    0.6   159     2.3   967.5    0.00 
 264    3:00   0.00   58.8    95    1.8   163     5.6   967.5    0.00 
 264    3:10   0.00   58.9    94    2.2    70     8.0   967.5    0.00 
 264    3:20   0.00   58.1    94    2.0   279     4.2   967.8    0.00 
 264    3:30   0.00   57.3    94    0.6   263     2.0   967.8    0.00 
 264    3:40   0.00   56.4    95    1.8   107     2.5   967.8    0.00 
 264    3:50   0.00   56.3    96    1.3   149     2.3   967.8    0.00 
 264    4:00   0.00   57.0    96    0.5    68     1.3   967.8    0.00 
 264    4:10   0.00   56.6    96    0.2    99     0.7   967.8    0.00 
 264    4:20   0.00   57.4    96    0.9   151     2.3   967.8    0.00 
 264    4:30   0.00   57.9    96    0.9   145     1.5   968.2    0.00 
 264    4:40   0.00   58.5    96    1.2   254     2.9   968.2    0.00 
 264    4:50   0.00   58.0    96    1.0   260     2.7   968.2    0.00 
 264    5:00   0.00   58.4    96    0.9   118     2.3   968.2    0.00 
 264    5:10   0.00   58.5    96    0.4   270     2.0   968.5    0.00 
 264    5:20   0.00   58.5    96    0.2   246     0.8   968.5    0.00 
 264    5:30   0.00   59.0    96    0.3   170     1.3   968.5    0.00 
 264    5:40   0.00   59.4    96    0.7   156     2.4   968.5    0.00 
 264    5:50   0.00   59.9    96    0.3   130     1.7   968.8    0.00 
 264    6:00   0.00   60.1    95    0.9   253     1.8   968.8    0.00 
 264    6:10   0.01   60.0    94    0.6   260     1.8   969.2    0.00 
 264    6:20   0.01   59.6    94    1.4   335     2.8   969.2    0.00 
 264    6:30   0.02   59.7    94    0.6   197     2.0   969.2    0.00 
 264    6:40   0.04   60.4    94    1.3   271     2.0   969.2    0.00 
 264    6:50   0.06   60.4    92    0.2   356     1.8   969.2    0.00 
 264    7:00   0.08   60.3    92    0.2    20     1.5   969.5    0.00 
 264    7:10   0.09   61.4    91    0.7   287     1.8   969.5    0.00 
 264    7:20   0.10   62.4    86    1.5   162     3.5   969.5    0.00 
 264    7:30   0.13   63.4    82    1.5   277     2.6   969.5    0.00 
 264    7:40   0.17   63.0    82    1.4   285     3.0   969.5    0.00 
 264    7:50   0.13   63.3    82    0.7    35     2.1   969.5    0.00 
 264    8:00   0.16   63.6    81    1.4   296     2.8   969.9    0.00 
 264    8:10   0.17   64.4    79    3.3   273     4.9   969.9    0.00 
 264    8:20   0.21   65.8    75    2.2   293     4.6   969.9    0.00 
 264    8:30   0.28   67.0    72    2.3   292     5.0   969.9    0.00 
 264    8:40   0.60   69.7    65    2.6   292     4.8   969.9    0.00 
 264    8:50   0.59   72.0    60    3.8   275     6.6   969.9    0.00 
 264    9:00   0.59   72.6    59    3.1   284     6.6   969.9    0.00 
 264    9:10   0.62   72.2    59    3.2   276     7.0   969.5    0.00 
 264    9:20   0.63   73.8    56    3.0   282     7.2   969.5    0.00 
 264    9:30   0.67   74.0    56    3.2   267     6.6   969.5    0.00 
 264    9:40   0.68   74.1    55    3.3   283     7.6   969.2    0.00 
 264    9:50   0.71   75.0    54    3.4   297     7.3   969.2    0.00 
 264   10:00   0.73   75.8    52    3.6   282     8.7   969.2    0.00 
 264   10:10   0.75   76.2    51    4.5   279     9.4   969.2    0.00 
 264   10:20   0.77   76.6    50    4.2   279    10.1   969.2    0.00 
 264   10:30   0.79   77.0    49    4.6   281    11.2   969.2    0.00 
 264   10:40   0.80   77.5    48    4.5   282    10.1   969.2    0.00 
 264   10:50   0.81   77.9    48    3.7   287    10.2   969.2    0.00 
 264   11:00   0.82   79.0    47    4.4   287    13.2   969.2    0.00 
 264   11:10   0.82   79.2    47    5.0   280     9.7   968.8    0.00 
 264   11:20   0.83   79.8    46    4.0   285    10.7   968.8    0.00 
 264   11:30   0.83   79.9    46    3.6   295     8.5   968.8    0.00 
 264   11:40   0.84   80.4    45    3.6   292    10.1   968.8    0.00 
 264   11:50   0.84   80.5    45    3.8   298     8.9   968.8    0.00 
 264   12:00   0.84   80.9    44    3.4   281     9.1   968.8    0.00 
 264   12:10   0.84   80.7    45    3.6   288     9.1   968.5    0.00 
 264   12:20   0.83   81.0    44    4.1   286     9.1   968.5    0.00 
 264   12:30   0.83   81.7    42    4.2   285     8.8   968.5    0.00 
 264   12:40   0.82   82.9    42    2.9   293     7.5   968.2    0.00 
 264   12:50   0.78   83.6    41    2.9   300     6.8   968.2    0.00 
 264   13:00   0.81   84.2    40    3.5   291     8.6   968.2    0.00 
 264   13:10   0.79   84.4    40    3.1   289     7.8   968.2    0.00 
 264   13:20   0.78   83.7    40    3.1   299     7.2   968.2    0.00 
 264   13:30   0.76   83.3    41    3.4   305     7.7   968.2    0.00 
 264   13:40   0.74   83.0    41    3.0   303     7.5   968.2    0.00 
 264   13:50   0.72   82.9    42    3.0   299     6.9   968.2    0.00 
 264   14:00   0.70   83.3    41    3.1   303     8.3   968.2    0.00 
 264   14:10   0.68   82.7    42    3.7   313     8.6   967.8    0.00 
 264   14:20   0.65   82.5    42    3.6   312     8.8   967.8    0.00 
 264   14:30   0.63   81.3    44    3.4   305     8.0   967.8    0.00 
 264   14:40   0.60   81.9    44    3.4   302     9.2   967.8    0.00 
 264   14:50   0.57   82.2    44    2.8   300     6.6   967.8    0.00 
 264   15:00   0.54   82.6    44    2.7   305     7.8   967.8    0.00 

Return to Stunt Ranch Reserve graphs page.


Western Regional Climate Center,wrcc@dri.edu